This is the latest recevied weather packets stored in our database for station/object N1ADJ. If no packets are shown the sender has not sent any weather packets the latest 10 day(s).
| Time | Temp. | Humidity | Pressure | Rain* | Wind** | Luminosity | Snow |
|---|---|---|---|---|---|---|---|
| 1777852838 | 9.44° C | 50% | 1005.3 hPa | 0 mm | - | - | - |
| 1777850418 | 10.56° C | 45% | 1004.5 hPa | 0 mm | - | - | - |
| 1777846217 | 11.67° C | 47% | 1003.2 hPa | 0 mm | - | - | - |
| 1777845618 | 11.67° C | 49% | 1002.9 hPa | 0 mm | - | - | - |
| 1777835718 | 10° C | 66% | 1003.5 hPa | 0 mm | - | - | - |
| 1777833617 | 10° C | 70% | 1003.7 hPa | 0 mm | - | - | - |
| 1777832717 | 10° C | 71% | 1003.8 hPa | 0 mm | - | - | - |
| 1777829722 | 9.44° C | 83% | 1003.7 hPa | 0 mm | - | - | - |
| 1777829417 | 9.44° C | 83% | 1003.6 hPa | 0 mm | - | - | - |
| 1777827617 | 8.89° C | 85% | 1003.6 hPa | 0 mm | - | - | - |
| 1777826118 | 8.89° C | 84% | 1003.8 hPa | 0 mm | - | - | - |
| 1777824317 | 8.33° C | 88% | 1004 hPa | 0 mm | - | - | - |
| 1777822536 | 7.78° C | 90% | 1004.4 hPa | 0 mm | - | - | - |
| 1777819816 | 7.22° C | 94% | 1004.9 hPa | 0.51 mm | - | - | - |
| 1777818317 | 6.67° C | 94% | 1004.7 hPa | 0.76 mm | - | - | - |
| 1777817162 | 6.67° C | 94% | 1005.1 hPa | 0.51 mm | - | - | - |
| 1777814418 | 6.67° C | 94% | 1005.3 hPa | 0.25 mm | - | - | - |
| 1777813539 | 6.67° C | 94% | 1005.2 hPa | 0.25 mm | - | - | - |
| 1777812918 | 7.22° C | 94% | 1005.4 hPa | 0.25 mm | - | - | - |
| 1777812019 | 7.22° C | 94% | 1005.4 hPa | 0 mm | - | - | - |
| 1777811419 | 7.22° C | 94% | 1005.5 hPa | 0 mm | - | - | - |
| 1777807518 | 6.67° C | 96% | 1005.9 hPa | 0 mm | - | - | - |
| 1777806918 | 6.67° C | 96% | 1006.1 hPa | 0 mm | - | - | - |
| 1777805719 | 6.67° C | 96% | 1006 hPa | 0 mm | - | - | - |
| 1777800338 | 6.67° C | 96% | 1006.3 hPa | 0 mm | - | - | - |
* Rain latest hour (hover to see other rain measurements)
** Current wind speed in m/s (hover to see current wind gust speed)